createdAt,value
2023-03-02T00:01:10.735Z,60.80
2023-03-02T00:03:40.885Z,60.80
2023-03-02T00:06:09.717Z,60.70
2023-03-02T00:08:39.537Z,60.60
2023-03-02T00:11:06.740Z,60.70
2023-03-02T00:13:35.580Z,60.60
2023-03-02T00:16:02.813Z,60.50
2023-03-02T00:18:30.033Z,60.60
2023-03-02T00:20:57.119Z,60.60
2023-03-02T00:23:24.269Z,60.60
2023-03-02T00:25:51.446Z,60.70
2023-03-02T00:28:18.537Z,60.70
2023-03-02T00:30:45.753Z,61.50
2023-03-02T00:33:12.880Z,61.20
2023-03-02T00:35:41.373Z,61.20
2023-03-02T00:38:08.629Z,61.40
2023-03-02T00:40:36.456Z,61.30
2023-03-02T00:43:03.903Z,61.30
2023-03-02T00:45:31.046Z,61.30
2023-03-02T00:47:58.115Z,61.30
2023-03-02T00:50:25.314Z,61.20
2023-03-02T00:52:52.493Z,62.30
2023-03-02T00:55:19.694Z,62.60
2023-03-02T00:57:54.986Z,61.80
2023-03-02T01:00:24.394Z,61.60
2023-03-02T01:02:51.617Z,61.50
2023-03-02T01:05:18.799Z,61.40
2023-03-02T01:07:45.980Z,61.50
2023-03-02T01:10:13.524Z,61.40
2023-03-02T01:12:41.013Z,61.40
2023-03-02T01:15:09.963Z,61.60
2023-03-02T01:17:37.136Z,61.60
2023-03-02T01:20:05.652Z,61.60
2023-03-02T01:22:32.760Z,61.60
2023-03-02T01:24:59.916Z,61.70
2023-03-02T01:27:26.985Z,61.60
2023-03-02T01:29:54.766Z,61.70
2023-03-02T01:32:21.886Z,62.10
2023-03-02T01:34:49.004Z,62.10
2023-03-02T01:37:16.097Z,62.10
2023-03-02T01:39:43.161Z,62.20
2023-03-02T01:42:10.273Z,61.90
2023-03-02T01:44:47.500Z,61.80
2023-03-02T01:47:23.107Z,62.50
2023-03-02T01:49:53.042Z,62.50
2023-03-02T01:52:20.451Z,62.10
2023-03-02T01:54:50.047Z,62.10
2023-03-02T01:57:29.418Z,62.00
2023-03-02T02:00:01.061Z,62.00
2023-03-02T02:02:29.273Z,62.00
2023-03-02T02:04:57.041Z,62.40
2023-03-02T02:07:24.307Z,62.70
2023-03-02T02:09:52.888Z,63.00
2023-03-02T02:12:23.885Z,63.20
2023-03-02T02:14:51.436Z,62.60
2023-03-02T02:17:19.649Z,62.60
2023-03-02T02:20:06.749Z,62.40
2023-03-02T02:22:43.652Z,62.60
2023-03-02T02:25:34.633Z,62.50
2023-03-02T02:28:08.578Z,62.50
2023-03-02T02:30:39.217Z,62.60
2023-03-02T02:33:07.700Z,62.50
2023-03-02T02:35:38.682Z,62.30
2023-03-02T02:38:07.800Z,62.40
2023-03-02T02:40:40.824Z,62.60
2023-03-02T02:43:12.823Z,62.90
2023-03-02T02:45:40.450Z,62.50
2023-03-02T02:48:19.291Z,62.70
2023-03-02T02:50:47.337Z,62.50
2023-03-02T02:53:28.701Z,62.90
2023-03-02T02:55:58.162Z,64.20
2023-03-02T02:58:25.247Z,63.40
2023-03-02T03:00:53.989Z,63.30
2023-03-02T03:03:34.003Z,63.00
2023-03-02T03:06:03.475Z,62.90
2023-03-02T03:08:45.893Z,63.00
2023-03-02T03:11:15.853Z,62.90
2023-03-02T03:13:44.244Z,62.90
2023-03-02T03:16:14.919Z,62.80
2023-03-02T03:18:48.199Z,62.80
2023-03-02T03:21:18.446Z,63.60
2023-03-02T03:23:45.579Z,63.40
2023-03-02T03:26:12.777Z,63.20
2023-03-02T03:28:39.903Z,63.30
2023-03-02T03:31:07.215Z,63.30
2023-03-02T03:33:34.369Z,63.10
2023-03-02T03:36:01.738Z,63.80
2023-03-02T03:38:30.511Z,63.50
2023-03-02T03:40:57.584Z,63.40
2023-03-02T03:43:24.676Z,63.20
2023-03-02T03:45:52.138Z,63.20
2023-03-02T03:48:19.396Z,65.30
2023-03-02T03:50:46.518Z,64.10
2023-03-02T03:53:13.863Z,64.00
2023-03-02T03:55:40.929Z,64.00
2023-03-02T03:58:08.237Z,64.00
2023-03-02T04:00:35.436Z,64.00
2023-03-02T04:03:02.866Z,64.00
2023-03-02T04:05:31.597Z,64.00
2023-03-02T04:08:02.224Z,63.90
2023-03-02T04:10:29.850Z,63.90
2023-03-02T04:12:57.146Z,63.90
2023-03-02T04:15:24.748Z,64.30
2023-03-02T04:17:52.339Z,64.50
2023-03-02T04:20:21.233Z,64.50
2023-03-02T04:22:51.190Z,64.70
2023-03-02T04:25:20.086Z,65.10
2023-03-02T04:27:51.790Z,65.00
2023-03-02T04:30:21.802Z,65.50
2023-03-02T04:32:49.004Z,65.20
2023-03-02T04:35:16.823Z,65.20
2023-03-02T04:37:44.316Z,64.80
2023-03-02T04:40:12.651Z,65.20
2023-03-02T04:42:39.755Z,65.80
2023-03-02T04:45:07.641Z,64.90
2023-03-02T04:47:34.702Z,65.30
2023-03-02T04:50:01.865Z,65.70
2023-03-02T04:52:29.015Z,67.10
2023-03-02T04:54:56.209Z,66.30
2023-03-02T04:57:23.369Z,65.70
2023-03-02T04:59:50.452Z,65.60
2023-03-02T05:02:17.701Z,65.80
2023-03-02T05:04:44.980Z,66.30
2023-03-02T05:07:12.061Z,65.60
2023-03-02T05:09:39.180Z,65.10
2023-03-02T05:12:06.741Z,65.40
2023-03-02T05:14:33.940Z,65.60
2023-03-02T05:17:01.086Z,65.30
2023-03-02T05:19:28.532Z,65.10
2023-03-02T05:21:56.599Z,65.00
2023-03-02T05:24:23.849Z,65.00
2023-03-02T05:26:50.996Z,65.30
2023-03-02T05:29:18.298Z,65.20
2023-03-02T05:31:47.450Z,65.80
2023-03-02T05:34:16.998Z,66.10
2023-03-02T05:36:45.421Z,67.20
2023-03-02T05:39:13.465Z,66.30
2023-03-02T05:41:40.716Z,66.70
2023-03-02T05:44:10.332Z,66.10
2023-03-02T05:46:37.956Z,66.10
2023-03-02T05:49:05.173Z,66.10
2023-03-02T05:51:32.302Z,65.90
2023-03-02T05:53:59.421Z,65.90
2023-03-02T05:56:26.598Z,66.20
2023-03-02T05:58:53.869Z,66.00
2023-03-02T06:01:21.198Z,65.60
2023-03-02T06:03:48.402Z,65.60
2023-03-02T06:06:16.766Z,65.50
2023-03-02T06:08:44.431Z,65.30
2023-03-02T06:11:12.272Z,65.20
2023-03-02T06:13:39.980Z,65.50
2023-03-02T06:16:08.364Z,65.90
2023-03-02T06:18:36.086Z,65.90
2023-03-02T06:21:04.329Z,66.30
2023-03-02T06:23:31.709Z,65.60
2023-03-02T06:25:59.190Z,65.50
2023-03-02T06:28:26.808Z,65.40
2023-03-02T06:30:54.070Z,65.30
2023-03-02T06:33:21.595Z,65.30
2023-03-02T06:35:49.717Z,65.30
2023-03-02T06:38:17.185Z,65.40
2023-03-02T06:40:44.633Z,65.20
2023-03-02T06:43:16.040Z,65.00
2023-03-02T06:45:43.164Z,64.80
2023-03-02T06:48:10.304Z,65.50
2023-03-02T06:50:38.818Z,65.00
2023-03-02T06:53:06.006Z,65.00
2023-03-02T06:55:33.087Z,65.20
2023-03-02T06:58:00.216Z,65.20
2023-03-02T07:00:28.408Z,65.00
2023-03-02T07:02:56.401Z,65.00
2023-03-02T07:05:24.670Z,65.00
2023-03-02T07:07:52.520Z,64.90
2023-03-02T07:10:19.835Z,65.00
2023-03-02T07:12:46.983Z,64.60
2023-03-02T07:15:16.626Z,64.30
2023-03-02T07:17:44.922Z,64.10
2023-03-02T07:20:14.196Z,63.80
2023-03-02T07:22:42.177Z,63.30
2023-03-02T07:25:10.953Z,63.30
2023-03-02T07:27:39.008Z,62.60
2023-03-02T07:30:07.078Z,62.20
2023-03-02T07:32:34.639Z,61.60
2023-03-02T07:35:01.961Z,61.40
2023-03-02T07:37:29.164Z,60.90
2023-03-02T07:39:56.247Z,61.10
2023-03-02T07:42:23.334Z,60.60
2023-03-02T07:44:53.787Z,60.40
2023-03-02T07:47:21.003Z,59.80
2023-03-02T07:49:48.134Z,60.20
2023-03-02T07:52:15.542Z,60.10
2023-03-02T07:54:42.673Z,59.60
2023-03-02T07:57:09.778Z,60.10
2023-03-02T07:59:36.879Z,59.90
2023-03-02T08:02:04.056Z,59.50
2023-03-02T08:04:31.843Z,59.50
2023-03-02T08:06:58.970Z,59.60
2023-03-02T08:09:26.062Z,58.70
2023-03-02T08:11:53.220Z,58.60
2023-03-02T08:14:20.299Z,58.50
2023-03-02T08:16:47.710Z,58.60
2023-03-02T08:19:14.775Z,58.70
2023-03-02T08:21:41.934Z,58.70
2023-03-02T08:24:10.097Z,59.20
2023-03-02T08:26:37.522Z,58.50
2023-03-02T08:29:05.420Z,58.30
2023-03-02T08:31:33.055Z,58.50
2023-03-02T08:34:00.349Z,58.40
2023-03-02T08:36:27.454Z,58.20
2023-03-02T08:38:55.164Z,58.00
2023-03-02T08:41:23.819Z,57.60
2023-03-02T08:43:54.172Z,56.80
2023-03-02T08:46:21.826Z,57.00
2023-03-02T08:48:51.291Z,56.60
2023-03-02T08:51:23.852Z,56.70
2023-03-02T08:53:52.579Z,56.60
2023-03-02T08:56:22.970Z,56.70
2023-03-02T08:58:51.188Z,56.40
2023-03-02T09:01:27.002Z,56.70
2023-03-02T09:03:54.491Z,56.20
2023-03-02T09:06:21.684Z,56.50
2023-03-02T09:08:48.985Z,56.20
2023-03-02T09:11:16.680Z,56.50
2023-03-02T09:13:44.002Z,56.40
2023-03-02T09:16:12.144Z,56.30
2023-03-02T09:18:40.461Z,56.30
2023-03-02T09:21:08.110Z,56.00
2023-03-02T09:23:36.668Z,56.10
2023-03-02T09:26:04.883Z,55.90
2023-03-02T09:28:32.525Z,55.40
2023-03-02T09:31:01.926Z,55.60
2023-03-02T09:33:29.728Z,54.70
2023-03-02T09:35:56.838Z,55.40
2023-03-02T09:38:24.309Z,55.10
2023-03-02T09:41:07.286Z,55.20
2023-03-02T09:43:59.942Z,54.90
2023-03-02T09:46:37.741Z,54.10
2023-03-02T09:49:32.582Z,54.30
2023-03-02T09:52:11.782Z,52.80
2023-03-02T09:54:40.910Z,53.80
2023-03-02T09:57:28.525Z,53.70
2023-03-02T10:00:24.834Z,52.30
2023-03-02T10:03:19.463Z,52.00
2023-03-02T10:05:49.074Z,51.30
2023-03-02T10:08:20.755Z,50.40
2023-03-02T10:11:09.434Z,49.10
2023-03-02T10:13:36.457Z,50.30
2023-03-02T10:16:21.849Z,50.20
2023-03-02T10:19:12.677Z,49.60
2023-03-02T10:21:44.232Z,47.50
2023-03-02T10:24:50.127Z,48.50
2023-03-02T10:27:26.334Z,47.50
2023-03-02T10:30:18.406Z,48.90
2023-03-02T10:32:49.333Z,47.90
2023-03-02T10:35:21.058Z,47.20
2023-03-02T10:37:49.066Z,47.60
2023-03-02T10:40:40.708Z,47.30
2023-03-02T10:43:25.009Z,45.80
2023-03-02T10:46:03.436Z,46.50
2023-03-02T10:48:30.941Z,46.50
2023-03-02T10:51:00.401Z,46.20
2023-03-02T10:53:29.080Z,45.40
2023-03-02T10:55:56.353Z,46.50
2023-03-02T10:58:26.219Z,46.20
2023-03-02T11:00:59.296Z,45.60
2023-03-02T11:03:29.896Z,45.20
2023-03-02T11:06:00.504Z,45.30
2023-03-02T11:08:28.912Z,45.10
2023-03-02T11:11:04.462Z,44.90
2023-03-02T11:13:34.767Z,44.80
2023-03-02T11:16:24.105Z,44.90
2023-03-02T11:19:16.239Z,44.50
2023-03-02T11:21:52.380Z,44.60
2023-03-02T11:24:33.579Z,43.90
2023-03-02T11:27:03.675Z,44.20
2023-03-02T11:29:54.731Z,43.80
2023-03-02T11:32:34.594Z,43.80
2023-03-02T11:35:04.792Z,41.60
2023-03-02T11:37:51.109Z,43.40
2023-03-02T11:40:44.138Z,43.20
2023-03-02T11:43:13.027Z,43.00
2023-03-02T11:45:51.211Z,43.60
2023-03-02T11:48:33.737Z,43.70
2023-03-02T11:51:04.472Z,43.80
2023-03-02T11:53:50.281Z,43.40
2023-03-02T11:56:17.763Z,43.00
2023-03-02T11:58:51.014Z,43.10
2023-03-02T12:01:22.682Z,42.60
2023-03-02T12:03:49.863Z,41.40
2023-03-02T12:06:24.714Z,41.70
2023-03-02T12:09:12.405Z,41.70
2023-03-02T12:11:41.262Z,41.20
2023-03-02T12:14:38.902Z,41.30
2023-03-02T12:17:19.428Z,41.70
2023-03-02T12:19:47.387Z,40.40
2023-03-02T12:22:27.331Z,41.30
2023-03-02T12:25:07.095Z,40.80
2023-03-02T12:27:41.791Z,40.90
2023-03-02T12:30:24.652Z,40.50
2023-03-02T12:33:11.893Z,40.90
2023-03-02T12:35:39.304Z,40.40
2023-03-02T12:38:32.161Z,40.20
2023-03-02T12:41:36.387Z,40.60
2023-03-02T12:44:31.436Z,41.10
2023-03-02T12:46:59.319Z,40.90
2023-03-02T12:49:30.826Z,40.80
2023-03-02T12:52:00.860Z,41.20
2023-03-02T12:54:30.934Z,40.00
2023-03-02T12:57:20.071Z,40.40
2023-03-02T12:59:59.566Z,40.50
2023-03-02T13:02:35.084Z,40.80
2023-03-02T13:05:06.006Z,40.80
2023-03-02T13:07:50.855Z,40.80
2023-03-02T13:10:30.701Z,41.20
2023-03-02T13:13:00.202Z,41.20
2023-03-02T13:15:27.613Z,41.20
2023-03-02T13:17:57.584Z,40.90
2023-03-02T13:20:28.085Z,41.20
2023-03-02T13:22:55.950Z,40.70
2023-03-02T13:25:32.306Z,41.40
2023-03-02T13:28:04.517Z,41.20
2023-03-02T13:30:33.352Z,40.90
2023-03-02T13:33:03.922Z,41.00
2023-03-02T13:35:34.132Z,41.20
2023-03-02T13:38:13.777Z,41.00
2023-03-02T13:40:46.109Z,40.10
2023-03-02T13:43:28.995Z,40.40
2023-03-02T13:45:57.432Z,40.20
2023-03-02T13:48:25.144Z,40.10
2023-03-02T13:50:58.644Z,40.30
2023-03-02T13:53:30.132Z,40.30
2023-03-02T13:56:00.324Z,40.40
2023-03-02T13:58:29.817Z,40.70
2023-03-02T14:00:57.181Z,40.40
2023-03-02T14:03:27.620Z,40.50
2023-03-02T14:05:55.872Z,39.60
2023-03-02T14:08:23.201Z,39.80
2023-03-02T14:10:53.240Z,40.40
2023-03-02T14:13:25.184Z,40.60
2023-03-02T14:15:53.852Z,40.60
2023-03-02T14:18:29.781Z,40.70
2023-03-02T14:20:57.895Z,40.60
2023-03-02T14:23:26.089Z,40.50
2023-03-02T14:25:55.400Z,39.00
2023-03-02T14:28:30.297Z,39.80
2023-03-02T14:30:58.788Z,39.50
2023-03-02T14:33:26.066Z,39.80
2023-03-02T14:35:56.311Z,40.00
2023-03-02T14:38:26.719Z,40.10
2023-03-02T14:40:54.032Z,39.80
2023-03-02T14:43:23.472Z,40.00
2023-03-02T14:45:52.220Z,40.10
2023-03-02T14:48:19.427Z,39.80
2023-03-02T14:50:49.397Z,40.10
2023-03-02T14:53:22.987Z,39.90
2023-03-02T14:55:50.173Z,39.50
2023-03-02T14:58:20.242Z,39.50
2023-03-02T15:00:47.799Z,39.90
2023-03-02T15:03:19.293Z,40.80
2023-03-02T15:06:00.270Z,40.30
2023-03-02T15:08:28.245Z,40.40
2023-03-02T15:10:55.519Z,39.80
2023-03-02T15:13:22.635Z,40.30
2023-03-02T15:15:50.208Z,40.50
2023-03-02T15:18:19.917Z,40.40
2023-03-02T15:20:47.268Z,40.60
2023-03-02T15:23:14.466Z,40.60
2023-03-02T15:25:42.999Z,40.40
2023-03-02T15:28:10.727Z,40.40
2023-03-02T15:30:37.865Z,40.40
2023-03-02T15:33:05.252Z,40.60
2023-03-02T15:35:32.496Z,40.80
2023-03-02T15:38:02.599Z,40.90
2023-03-02T15:40:29.729Z,40.70
2023-03-02T15:42:56.886Z,40.80
2023-03-02T15:45:23.963Z,40.90
2023-03-02T15:47:51.049Z,40.90
2023-03-02T15:50:19.412Z,41.00
2023-03-02T15:52:46.523Z,41.10
2023-03-02T15:55:15.986Z,41.20
2023-03-02T15:57:45.368Z,41.30
2023-03-02T16:00:13.590Z,41.40
2023-03-02T16:02:41.158Z,41.60
2023-03-02T16:05:09.214Z,41.70
2023-03-02T16:07:37.280Z,41.90
2023-03-02T16:10:04.725Z,42.00
2023-03-02T16:12:31.809Z,42.10
2023-03-02T16:14:58.987Z,42.10
2023-03-02T16:17:26.070Z,42.30
2023-03-02T16:19:53.261Z,42.40
2023-03-02T16:22:20.376Z,42.50
2023-03-02T16:24:49.432Z,42.50
2023-03-02T16:27:16.777Z,42.70
2023-03-02T16:29:44.018Z,42.90
2023-03-02T16:32:11.340Z,45.10
2023-03-02T16:34:38.512Z,44.70
2023-03-02T16:37:05.643Z,44.60
2023-03-02T16:39:33.051Z,46.00
2023-03-02T16:42:00.185Z,45.30
2023-03-02T16:44:27.307Z,45.50
2023-03-02T16:46:56.970Z,46.20
2023-03-02T16:49:24.422Z,46.50
2023-03-02T16:51:56.943Z,46.10
2023-03-02T16:54:24.507Z,46.50
2023-03-02T16:56:51.601Z,46.40
2023-03-02T16:59:18.694Z,46.60
2023-03-02T17:01:45.886Z,48.10
2023-03-02T17:04:13.135Z,48.30
2023-03-02T17:06:59.620Z,47.20
2023-03-02T17:09:28.071Z,47.10
2023-03-02T17:11:55.332Z,47.70
2023-03-02T17:14:22.826Z,47.60
2023-03-02T17:16:49.921Z,48.00
2023-03-02T17:19:17.031Z,48.30
2023-03-02T17:21:44.244Z,47.90
2023-03-02T17:24:13.824Z,48.00
2023-03-02T17:26:41.023Z,48.90
2023-03-02T17:29:08.139Z,49.00
2023-03-02T17:31:35.265Z,50.00
2023-03-02T17:34:02.464Z,49.60
2023-03-02T17:36:32.259Z,48.60
2023-03-02T17:38:59.354Z,48.70
2023-03-02T17:41:26.740Z,48.60
2023-03-02T17:43:53.919Z,50.30
2023-03-02T17:46:25.317Z,49.50
2023-03-02T17:48:55.514Z,49.40
2023-03-02T17:51:24.425Z,50.00
2023-03-02T17:53:53.164Z,49.70
2023-03-02T17:56:24.320Z,49.40
2023-03-02T17:59:04.233Z,50.30
2023-03-02T18:01:32.499Z,50.70
2023-03-02T18:04:00.412Z,49.90
2023-03-02T18:06:28.084Z,49.90
2023-03-02T18:08:55.335Z,50.30
2023-03-02T18:11:24.735Z,49.60
2023-03-02T18:13:55.104Z,50.30
2023-03-02T18:16:28.201Z,50.60
2023-03-02T18:18:58.462Z,50.80
2023-03-02T18:21:25.874Z,50.80
2023-03-02T18:23:53.028Z,51.20
2023-03-02T18:26:20.490Z,51.50
2023-03-02T18:28:47.616Z,50.90
2023-03-02T18:31:16.430Z,51.60
2023-03-02T18:33:44.696Z,50.70
2023-03-02T18:36:11.849Z,50.20
2023-03-02T18:38:39.146Z,51.00
2023-03-02T18:41:08.192Z,50.80
2023-03-02T18:43:38.953Z,50.60
2023-03-02T18:46:08.629Z,50.60
2023-03-02T18:48:35.853Z,51.10
2023-03-02T18:51:03.121Z,50.50
2023-03-02T18:53:30.201Z,50.50
2023-03-02T18:55:57.475Z,50.70
2023-03-02T18:58:34.057Z,51.20
2023-03-02T19:01:01.832Z,50.80
2023-03-02T19:03:29.900Z,51.00
2023-03-02T19:05:58.232Z,51.60
2023-03-02T19:08:25.696Z,51.00
2023-03-02T19:10:54.492Z,51.00
2023-03-02T19:13:21.835Z,51.20
2023-03-02T19:15:54.624Z,51.20
2023-03-02T19:18:23.477Z,51.40
2023-03-02T19:20:52.085Z,51.20
2023-03-02T19:23:19.215Z,51.40
2023-03-02T19:25:46.649Z,52.20
2023-03-02T19:28:14.111Z,52.80
2023-03-02T19:30:41.359Z,52.30
2023-03-02T19:33:09.951Z,52.60
2023-03-02T19:35:39.894Z,52.60
2023-03-02T19:38:07.950Z,52.50
2023-03-02T19:40:36.620Z,52.60
2023-03-02T19:43:06.706Z,52.90
2023-03-02T19:45:35.697Z,53.30
2023-03-02T19:48:05.913Z,54.00
2023-03-02T19:50:33.123Z,54.20
2023-03-02T19:53:00.273Z,54.00
2023-03-02T19:55:27.579Z,53.80
2023-03-02T19:58:01.040Z,53.40
2023-03-02T20:00:30.540Z,54.50
2023-03-02T20:02:58.002Z,54.00
2023-03-02T20:05:27.558Z,54.30
2023-03-02T20:07:55.120Z,53.00
2023-03-02T20:10:34.717Z,54.30
2023-03-02T20:13:03.581Z,54.00
2023-03-02T20:15:32.680Z,54.30
2023-03-02T20:18:02.600Z,54.40
2023-03-02T20:20:30.981Z,54.90
2023-03-02T20:23:00.141Z,54.00
2023-03-02T20:25:28.591Z,54.10
2023-03-02T20:28:05.502Z,54.80
2023-03-02T20:30:43.957Z,54.70
2023-03-02T20:33:11.380Z,54.70
2023-03-02T20:35:41.219Z,55.20
2023-03-02T20:38:15.937Z,54.70
2023-03-02T20:40:43.528Z,54.30
2023-03-02T20:43:11.232Z,54.10
2023-03-02T20:45:39.503Z,54.10
2023-03-02T20:48:07.463Z,53.60
2023-03-02T20:50:36.342Z,53.40
2023-03-02T20:53:05.434Z,53.70
2023-03-02T20:55:33.071Z,53.70
2023-03-02T20:58:01.230Z,54.40
2023-03-02T21:00:29.856Z,54.50
2023-03-02T21:02:57.924Z,54.20
2023-03-02T21:05:27.008Z,54.80
2023-03-02T21:07:55.161Z,55.40
2023-03-02T21:10:32.912Z,54.30
2023-03-02T21:13:00.280Z,54.40
2023-03-02T21:15:28.132Z,54.20
2023-03-02T21:17:56.117Z,54.60
2023-03-02T21:20:25.470Z,55.40
2023-03-02T21:22:52.560Z,54.50
2023-03-02T21:25:20.665Z,54.60
2023-03-02T21:27:47.909Z,54.60
2023-03-02T21:30:22.473Z,54.60
2023-03-02T21:32:49.685Z,54.60
2023-03-02T21:35:22.127Z,54.50
2023-03-02T21:37:52.537Z,54.30
2023-03-02T21:40:23.333Z,54.10
2023-03-02T21:42:50.474Z,54.20
2023-03-02T21:45:18.973Z,54.60
2023-03-02T21:47:46.271Z,54.20
2023-03-02T21:50:18.657Z,54.20
2023-03-02T21:52:45.762Z,54.30
2023-03-02T21:55:13.624Z,54.70
2023-03-02T21:57:41.712Z,55.10
2023-03-02T22:00:10.512Z,54.50
2023-03-02T22:02:37.968Z,54.30
2023-03-02T22:05:05.545Z,54.40
2023-03-02T22:07:32.653Z,54.20
2023-03-02T22:09:59.744Z,54.10
2023-03-02T22:12:27.232Z,54.10
2023-03-02T22:14:54.837Z,54.00
2023-03-02T22:17:24.638Z,54.60
2023-03-02T22:19:52.374Z,54.10
2023-03-02T22:22:25.948Z,54.30
2023-03-02T22:24:54.347Z,54.50
2023-03-02T22:27:25.866Z,54.70
2023-03-02T22:29:57.786Z,54.30
2023-03-02T22:32:27.737Z,54.30
2023-03-02T22:35:00.311Z,54.30
2023-03-02T22:37:33.850Z,54.20
2023-03-02T22:40:07.078Z,54.20
2023-03-02T22:42:34.404Z,54.30
2023-03-02T22:45:22.207Z,54.30
2023-03-02T22:47:51.556Z,54.20
2023-03-02T22:50:18.773Z,54.30
2023-03-02T22:52:45.884Z,54.40
2023-03-02T22:55:28.124Z,54.70
2023-03-02T22:57:55.281Z,54.40
2023-03-02T23:00:40.287Z,54.50
2023-03-02T23:03:21.510Z,54.70
2023-03-02T23:05:51.821Z,54.50
2023-03-02T23:08:30.092Z,54.60
2023-03-02T23:10:59.304Z,54.60
2023-03-02T23:13:38.455Z,54.60
2023-03-02T23:16:19.426Z,54.60
2023-03-02T23:18:50.572Z,54.60
2023-03-02T23:21:23.892Z,54.80
2023-03-02T23:23:51.165Z,54.90
2023-03-02T23:26:20.736Z,55.00
2023-03-02T23:28:50.164Z,55.00
2023-03-02T23:31:21.392Z,54.90
2023-03-02T23:33:48.886Z,54.80
2023-03-02T23:36:16.267Z,55.00
2023-03-02T23:38:43.372Z,56.80
2023-03-02T23:41:10.525Z,57.10
2023-03-02T23:43:37.676Z,56.30
2023-03-02T23:46:05.059Z,56.00
2023-03-02T23:48:34.211Z,55.60
2023-03-02T23:51:01.534Z,55.90
2023-03-02T23:53:28.708Z,55.70
2023-03-02T23:55:55.961Z,55.80
2023-03-02T23:58:23.217Z,55.90
